Aeroporto :







RITROVATECI SU...

 
LOGIN :

Iscrizione | Disclaimer

   EN    FR    IT 

 









Sommario :    VFR   VFR Marginale   IFR   IFR Intensivo   IFR Molto Intensivo
Visibilità : 
Base nubi : 
>= 8 km
>= 3000ft
5 / 8 km
1000 / 3000 ft
1500m / 5 km
500 / 1000 ft
800 / 1500m
200 / 500 ft
< 800m
< 200 ft
Simboli :   Temporali  Nebbia  Neve Forte  Precipitazioni Forti  Vento > 20 kt






- Altitudine del aeroporto : 203 ft
- Codice IATA : YQY


CYQY - Sydney

ULTIMO METAR :
  • 140700Z 24008KT 15SM -SHSN FEW022 BKN058 M04/M06 A3016 RMK CU2SC4 SLP218

METARs OBSOLETI :
  • 140600Z 26011KT 15SM -SHSN SCT018 SCT058 M04/M06 A3011 RMK CU3SC1 SLP201
  • 140500Z 26010KT 15SM -SHSN SCT015 M04/M06 A3006 RMK CU3 SLP184

TAF TAF CYQY
Valido dal 14 a 06 ore il 14 a 18 ore UTC


140538Z 1406/1418 28010KT P6SM BKN030
TEMPO 1406/1414 4SM -SHSN BKN020
FM141400 30008KT 6SM -SHSN OVC025
TEMPO 1414/1418 2SM -SHSN OVC015
BECMG 1416/1418 VRB03KT RMK NXT FCST BY 141200Z



MetMap, La meteo Aeronautica in un colpo d'occhio ! - Copyright ORBIFLY Dicembre 2007 - Disclaimer

ORBIFLY MET'MAP TEAM :

Programmazione e sviluppo : Alexandra Zaïnal
Concezione e sviluppo : Baudouin d'Aumeries
Co-Programmazione e sviluppo : Marc-Olivier Méhu
Supporto tecnico e logistico : Manuel Goepfert
Aiuto per la traduzione : Arnaldo La Scala

Contatto : metmap@orbifly.com




FONTI E CREDITI :

   NOAA